| Date | Time | Temp. (oF) | Dew Point (oF) | Rel. Hum. (%) | Press. (in.) | Wind Dir. | Wind Speed (mph) | Hourly Rainfall (in.) |
|
|---|---|---|---|---|---|---|---|---|---|
| 1 | 07/29 | 00:00 | 69 | 67 | 94 | 30.10 | SW | 1 | 0.00 |
| 2 | 07/28 | 23:00 | 71 | 67 | 88 | 30.10 | SW | 0 | 0.00 |
| 3 | 07/28 | 22:00 | 72 | 67 | 85 | 30.08 | WSW | 2 | 0.00 |
| 4 | miss | miss | miss | miss | miss | miss | miss | miss | |
| 5 | 07/28 | 21:21 | 74 | 65 | 76 | 30.07 | WSW | 1 | 0.00 |
| 6 | miss | miss | miss | miss | miss | miss | miss | miss | |
| 7 | 07/28 | 21:19 | 74 | 65 | 75 | 30.07 | WSW | 0 | 0.00 |
| 8 | miss | miss | miss | miss | miss | miss | miss | miss | |
| 9 | 07/28 | 21:17 | 74 | 65 | 74 | 30.07 | WSW | 0 | 0.00 |
| 10 | miss | miss | miss | miss | miss | miss | miss | miss | |
| 11 | 07/28 | 21:15 | 74 | 64 | 73 | 30.07 | WSW | 2 | 0.00 |
| 12 | miss | miss | miss | miss | miss | miss | miss | miss | |
| 13 | 07/28 | 21:13 | 75 | 65 | 73 | 30.07 | WSW | 1 | 0.00 |
| 14 | miss | miss | miss | miss | miss | miss | miss | miss | |
| 15 | 07/28 | 21:11 | 75 | 65 | 73 | 30.07 | WSW | 1 | 0.00 |
| 16 | miss | miss | miss | miss | miss | miss | miss | miss | |
| 17 | 07/28 | 21:09 | 75 | 65 | 73 | 30.07 | WSW | 0 | 0.00 |
| 18 | miss | miss | miss | miss | miss | miss | miss | miss | |
| 19 | 07/28 | 21:07 | 75 | 65 | 72 | 30.07 | WSW | 0 | 0.00 |
| 20 | miss | miss | miss | miss | miss | miss | miss | miss | |
| 21 | 07/28 | 21:05 | 75 | 65 | 72 | 30.07 | WSW | 0 | 0.00 |
| 22 | miss | miss | miss | miss | miss | miss | miss | miss | |
| 23 | 07/28 | 21:03 | 75 | 65 | 72 | 30.07 | WSW | 0 | 0.00 |
| 24 | miss | miss | miss | miss | miss | miss | miss | miss | |
| 25 | 07/28 | 21:01 | 75 | 65 | 72 | 30.07 | WSW | 0 | 0.00 |
| 26 | miss | miss | miss | miss | miss | miss | miss | miss | |
| 27 | 07/28 | 21:01 | 75 | 65 | 72 | 30.07 | WSW | 0 | 0.00 |
| 28 | 07/28 | 21:00 | 75 | 65 | 72 | 30.07 | WSW | 0 | 0.00 |
| 29 | 07/28 | 20:00 | 77 | 64 | 65 | 30.06 | NNW | 1 | 0.00 |
| 30 | 07/28 | 19:00 | 78 | 61 | 57 | 30.05 | WNW | 1 | 0.00 |
| 31 | 07/28 | 18:00 | 79 | 61 | 55 | 30.05 | NW | 4 | 0.00 |
| 32 | 07/28 | 17:00 | 80 | 62 | 55 | 30.04 | W | 7 | 0.00 |
| 33 | 07/28 | 16:00 | 82 | 63 | 53 | 30.04 | NNW | 1 | 0.00 |
| 34 | 07/28 | 15:00 | 81 | 61 | 52 | 30.06 | SSW | 4 | 0.00 |
| 35 | 07/28 | 14:00 | 79 | 63 | 60 | 30.06 | WNW | 2 | 0.00 |
| 36 | 07/28 | 13:00 | 78 | 60 | 55 | 30.08 | NNE | 4 | 0.00 |
| 37 | 07/28 | 12:00 | 77 | 59 | 56 | 30.09 | NE | 4 | 0.00 |
| 38 | 07/28 | 11:00 | 75 | 61 | 62 | 30.09 | N | 4 | 0.00 |
| 39 | 07/28 | 10:00 | 72 | 60 | 68 | 30.09 | N | 6 | 0.00 |
| 40 | 07/28 | 09:00 | 69 | 59 | 73 | 30.09 | N | 9 | 0.00 |
| 41 | 07/28 | 08:00 | 68 | 60 | 76 | 30.07 | NNE | 7 | 0.00 |
| 42 | 07/28 | 07:00 | 66 | 60 | 83 | 30.07 | N | 5 | 0.00 |
| 43 | 07/28 | 06:00 | 66 | 61 | 86 | 30.03 | NNW | 4 | 0.00 |
| 44 | 07/28 | 05:00 | 68 | 62 | 84 | 30.02 | N | 3 | 0.00 |
| 45 | 07/28 | 04:00 | 69 | 63 | 83 | 30.00 | N | 5 | 0.00 |
| 46 | 07/28 | 03:00 | 70 | 64 | 82 | 29.99 | NNW | 3 | 0.00 |
| 47 | 07/28 | 02:00 | 71 | 65 | 82 | 29.98 | NW | 2 | 0.00 |
| 48 | 07/28 | 01:00 | 72 | 65 | 79 | 29.97 | NNW | 6 | 0.00 |
| 49 | 07/28 | 00:00 | 74 | 65 | 76 | 29.97 | N | 3 | 0.00 |
| 50 | 07/27 | 23:00 | 76 | 69 | 80 | 29.96 | N | 7 | 0.00 |
| 51 | 07/27 | 22:00 | 78 | 71 | 80 | 29.94 | NW | 7 | 0.00 |
| 52 | 07/27 | 21:00 | 79 | 75 | 88 | 29.88 | NNW | 4 | 0.00 |
| 53 | 07/27 | 20:00 | 81 | 77 | 90 | 29.85 | NNW | 0 | 0.00 |
| 54 | 07/27 | 19:00 | 82 | 79 | 93 | 29.81 | WNW | 4 | 0.05 |
| 55 | 07/27 | 18:00 | 82 | 78 | 88 | 29.78 | W | 2 | 0.19 |
| 56 | 07/27 | 17:00 | 94 | 79 | 63 | 29.73 | SSW | 10 | 0.00 |
| 57 | 07/27 | 16:00 | 94 | 77 | 59 | 29.75 | SSW | 8 | 0.00 |
| 58 | 07/27 | 15:00 | 93 | 76 | 60 | 29.76 | SSW | 7 | 0.00 |
| 59 | 07/27 | 14:00 | 94 | 77 | 60 | 29.78 | SW | 6 | 0.00 |
| 60 | miss | miss | miss | miss | miss | miss | miss | miss | |
| 61 | 07/27 | 13:46 | 93 | 79 | 65 | 29.79 | SSW | 6 | 0.00 |
| 62 | miss | miss | miss | miss | miss | miss | miss | miss | |
| 63 | 07/27 | 13:44 | 93 | 79 | 66 | 29.78 | W | 8 | 0.00 |
| 64 | miss | miss | miss | miss | miss | miss | miss | miss | |
| 65 | 07/27 | 13:42 | 92 | 78 | 65 | 29.78 | SSW | 4 | 0.00 |
| 66 | miss | miss | miss | miss | miss | miss | miss | miss | |
| 67 | 07/27 | 13:40 | 93 | 78 | 64 | 29.78 | S | 7 | 0.00 |
| 68 | miss | miss | miss | miss | miss | miss | miss | miss | |
| 69 | 07/27 | 13:38 | 93 | 78 | 64 | 29.79 | SSW | 4 | 0.00 |
| 70 | miss | miss | miss | miss | miss | miss | miss | miss | |
| 71 | 07/27 | 13:36 | 93 | 77 | 62 | 29.78 | S | 6 | 0.00 |
| 72 | miss | miss | miss | miss | miss | miss | miss | miss | |
| 73 | 07/27 | 13:34 | 93 | 77 | 62 | 29.79 | S | 7 | 0.00 |
| 74 | miss | miss | miss | miss | miss | miss | miss | miss | |
| 75 | 07/27 | 13:34 | 93 | 77 | 62 | 29.79 | S | 7 | 0.00 |
| 76 | miss | miss | miss | miss | miss | miss | miss | miss | |
| 77 | 07/27 | 13:34 | 93 | 77 | 62 | 29.79 | S | 7 | 0.00 |
| 78 | miss | miss | miss | miss | miss | miss | miss | miss | |
| 79 | 07/27 | 13:34 | 93 | 77 | 62 | 29.79 | S | 7 | 0.00 |
| 80 | miss | miss | miss | miss | miss | miss | miss | miss | |
| 81 | 07/27 | 13:34 | 93 | 77 | 62 | 29.79 | S | 7 | 0.00 |
| 82 | miss | miss | miss | miss | miss | miss | miss | miss | |
| 83 | 07/27 | 13:34 | 93 | 77 | 62 | 29.79 | S | 7 | 0.00 |
| 84 | 07/27 | 13:00 | 94 | 79 | 63 | 29.80 | SW | 5 | 0.00 |
| 85 | 07/27 | 12:00 | 92 | 78 | 65 | 29.81 | SW | 5 | 0.00 |
| 86 | 07/27 | 11:00 | 91 | 78 | 68 | 29.80 | SW | 6 | 0.00 |
| 87 | 07/27 | 10:00 | 89 | 79 | 74 | 29.80 | SSW | 3 | 0.00 |
| 88 | 07/27 | 09:00 | 85 | 79 | 83 | 29.81 | S | 5 | 0.00 |
| 89 | 07/27 | 08:00 | 79 | 78 | 99 | 29.83 | SSE | 0 | 0.00 |
| 90 | 07/27 | 07:00 | 77 | 76 | 98 | 29.82 | N | 0 | 0.00 |
| 91 | 07/27 | 06:00 | 77 | 76 | 98 | 29.83 | N | 0 | 0.00 |
| 92 | 07/27 | 05:00 | 78 | 77 | 97 | 29.82 | SSE | 0 | 0.00 |
| 93 | 07/27 | 04:00 | 79 | 77 | 95 | 29.81 | E | 0 | 0.00 |
| 94 | 07/27 | 03:00 | 79 | 77 | 95 | 29.81 | SW | 1 | 0.00 |
| 95 | 07/27 | 02:00 | 79 | 77 | 96 | 29.81 | SSW | 3 | 0.00 |
| 96 | 07/27 | 01:00 | 82 | 79 | 91 | 29.83 | S | 4 | 0.00 |
| 97 | 07/27 | 00:00 | 82 | 79 | 91 | 29.84 | S | 3 | -0.24 |